Time;durP1;ratioP1;P1;durP2;ratioP2;P2;SDS_P1;SDS_P2;PMS_P1;PMS_P2;Temp;Humidity;BMP_temperature;BMP_pressure;BME280_temperature;BME280_humidity;BME280_pressure;Samples;Min_cycle;Max_cycle;Signal;HPM_P1;HPM_P2
2024/03/08 00:00:18;;;;;;;32.50;20.33;;;3.30;38.50;;;;;;5072991;28;20465;-69
2024/03/08 00:02:46;;;;;;;31.90;21.60;;;3.30;38.80;;;;;;5072314;28;20474;-70
2024/03/08 00:05:13;;;;;;;29.10;19.90;;;3.40;33.00;;;;;;5071153;28;20840;-70
2024/03/08 00:07:41;;;;;;;29.27;19.70;;;3.30;37.10;;;;;;5055621;28;20458;-69
2024/03/08 00:10:12;;;;;;;29.23;17.90;;;3.30;30.50;;;;;;5062007;28;20447;-70
2024/03/08 00:12:38;;;;;;;29.60;18.57;;;3.40;30.70;;;;;;5072225;28;20477;-69
2024/03/08 00:15:07;;;;;;;26.73;19.50;;;3.40;30.50;;;;;;5069727;28;20483;-69
2024/03/08 00:17:34;;;;;;;27.17;18.03;;;3.40;30.30;;;;;;5054568;28;20958;-69
2024/03/08 00:20:00;;;;;;;29.50;19.67;;;3.40;31.40;;;;;;5066051;28;20534;-69
2024/03/08 00:22:27;;;;;;;27.83;19.37;;;3.40;30.80;;;;;;5074693;28;20454;-69
2024/03/08 00:24:54;;;;;;;31.83;20.63;;;3.40;30.90;;;;;;5054761;28;20473;-69
2024/03/08 00:27:22;;;;;;;29.47;22.47;;;3.30;35.60;;;;;;5054697;28;20813;-70
2024/03/08 00:29:49;;;;;;;31.60;20.27;;;3.30;30.90;;;;;;5065196;28;20477;-69
2024/03/08 00:32:17;;;;;;;25.70;18.57;;;3.30;31.00;;;;;;5068365;28;20451;-70
2024/03/08 00:34:43;;;;;;;29.47;19.40;;;3.20;37.00;;;;;;5063446;28;20474;-69
2024/03/08 00:37:10;;;;;;;28.10;17.90;;;3.20;35.60;;;;;;5074287;28;20958;-69
2024/03/08 00:39:37;;;;;;;29.23;19.47;;;3.20;31.50;;;;;;5065217;28;20951;-69
2024/03/08 00:42:04;;;;;;;26.53;19.60;;;3.10;38.60;;;;;;5067364;28;20450;-69
2024/03/08 00:44:32;;;;;;;31.57;20.43;;;3.10;38.70;;;;;;5058520;28;20475;-69
2024/03/08 00:46:59;;;;;;;31.20;20.90;;;3.10;38.80;;;;;;5053944;28;20454;-69
2024/03/08 00:49:25;;;;;;;29.17;20.17;;;3.10;38.80;;;;;;5054048;28;20487;-70
2024/03/08 00:51:52;;;;;;;30.30;19.13;;;3.00;38.50;;;;;;5073815;28;20454;-69
2024/03/08 00:54:19;;;;;;;35.57;21.93;;;3.10;38.80;;;;;;5059368;28;20834;-69
2024/03/08 00:56:46;;;;;;;35.47;21.90;;;3.00;38.70;;;;;;5070185;28;20836;-69
2024/03/08 00:59:14;;;;;;;32.43;20.10;;;2.90;38.60;;;;;;5053715;28;20486;-69
2024/03/08 01:01:43;;;;;;;31.50;20.90;;;2.90;38.70;;;;;;5063154;28;20460;-69
2024/03/08 01:04:11;;;;;;;33.17;22.07;;;2.80;38.60;;;;;;5060129;28;20554;-69
2024/03/08 01:06:38;;;;;;;40.67;21.33;;;2.80;38.60;;;;;;5070630;28;20454;-69
2024/03/08 01:09:06;;;;;;;34.20;20.47;;;2.80;38.60;;;;;;5073517;28;20458;-69
2024/03/08 01:11:33;;;;;;;36.80;21.27;;;2.80;38.60;;;;;;5073845;28;20446;-69
2024/03/08 01:14:01;;;;;;;31.87;20.47;;;2.80;38.60;;;;;;5061322;28;20479;-69
2024/03/08 01:16:27;;;;;;;36.83;21.10;;;2.80;38.60;;;;;;5069243;28;20497;-69
2024/03/08 01:18:56;;;;;;;30.20;20.23;;;2.70;38.50;;;;;;5073797;28;20450;-69
2024/03/08 01:21:22;;;;;;;32.00;22.30;;;2.70;38.50;;;;;;5058410;28;20843;-69
2024/03/08 01:23:49;;;;;;;34.43;20.27;;;2.70;38.50;;;;;;5072039;28;21034;-69
2024/03/08 01:26:16;;;;;;;30.60;20.83;;;2.60;38.50;;;;;;5072872;28;20462;-69
2024/03/08 01:28:43;;;;;;;39.67;25.43;;;2.60;38.50;;;;;;5073262;28;20462;-68
2024/03/08 01:31:10;;;;;;;33.30;21.53;;;2.60;38.50;;;;;;5068045;28;20455;-69
2024/03/08 01:33:37;;;;;;;35.40;22.50;;;2.60;38.50;;;;;;5053259;28;20475;-69
2024/03/08 01:36:05;;;;;;;33.10;19.80;;;2.60;38.50;;;;;;5061235;28;20447;-70
2024/03/08 01:38:33;;;;;;;42.20;24.03;;;2.60;38.50;;;;;;5052990;28;20481;-69
2024/03/08 01:41:00;;;;;;;39.20;22.70;;;2.60;38.50;;;;;;5065291;28;20537;-69
2024/03/08 01:43:29;;;;;;;35.50;20.87;;;2.60;38.50;;;;;;5073282;28;20476;-69
2024/03/08 01:45:58;;;;;;;36.57;22.87;;;2.60;38.50;;;;;;5072807;28;20450;-69
2024/03/08 01:48:25;;;;;;;28.17;19.00;;;2.50;38.40;;;;;;5065765;28;20550;-69
2024/03/08 01:50:54;;;;;;;35.37;22.70;;;2.50;38.40;;;;;;5064294;28;20900;-69
2024/03/08 01:53:23;;;;;;;32.83;20.87;;;2.50;38.40;;;;;;5073289;28;20552;-69
2024/03/08 01:55:50;;;;;;;36.67;21.97;;;2.40;38.30;;;;;;5072205;28;20485;-69
2024/03/08 01:58:20;;;;;;;38.27;21.90;;;2.40;38.30;;;;;;5058278;28;20967;-70
2024/03/08 02:00:49;;;;;;;38.73;22.07;;;2.40;38.30;;;;;;5061001;28;20469;-69
2024/03/08 02:03:15;;;;;;;37.57;22.50;;;2.30;38.20;;;;;;5052772;28;20554;-69
2024/03/08 02:05:43;;;;;;;38.33;21.57;;;2.30;38.20;;;;;;5070300;28;20451;-69
2024/03/08 02:08:14;;;;;;;35.87;23.20;;;2.40;38.30;;;;;;5072557;28;20477;-69
2024/03/08 02:10:43;;;;;;;36.57;21.03;;;2.40;38.30;;;;;;5055867;28;20451;-69
2024/03/08 02:13:10;;;;;;;42.53;21.20;;;2.50;38.40;;;;;;5072652;28;20478;-69
2024/03/08 02:15:53;;;;;;;42.97;22.13;;;2.50;38.40;;;;;;5072056;28;20486;-69
2024/03/08 02:18:20;;;;;;;34.47;20.20;;;2.60;38.50;;;;;;5072343;28;20454;-70
2024/03/08 02:20:48;;;;;;;39.27;24.53;;;2.60;38.50;;;;;;5072596;28;20454;-68
2024/03/08 02:23:15;;;;;;;37.97;23.17;;;2.60;38.50;;;;;;5072097;28;20838;-69
2024/03/08 02:25:43;;;;;;;40.30;21.97;;;2.60;38.50;;;;;;5072088;28;20445;-69
2024/03/08 02:28:11;;;;;;;32.57;21.03;;;2.60;38.50;;;;;;5058929;28;20466;-70
2024/03/08 02:30:38;;;;;;;37.77;22.73;;;2.60;38.50;;;;;;5069265;28;20930;-69
2024/03/08 02:33:05;;;;;;;37.07;22.53;;;2.60;38.50;;;;;;5072312;28;20554;-71
2024/03/08 02:35:32;;;;;;;33.90;23.07;;;2.50;38.40;;;;;;5071701;28;20474;-69
2024/03/08 02:38:00;;;;;;;34.17;22.90;;;2.50;38.40;;;;;;5072368;28;20446;-69
2024/03/08 02:40:27;;;;;;;37.70;22.63;;;2.60;38.50;;;;;;5072107;28;20460;-69
2024/03/08 02:42:53;;;;;;;36.23;23.30;;;2.50;38.40;;;;;;5071944;28;20474;-69
2024/03/08 02:45:20;;;;;;;33.70;22.93;;;2.50;38.40;;;;;;5071617;28;20446;-69
2024/03/08 02:47:49;;;;;;;33.27;21.03;;;2.40;38.30;;;;;;5069890;28;20815;-69
2024/03/08 02:50:16;;;;;;;39.50;23.03;;;2.40;38.30;;;;;;5057732;28;20843;-69
2024/03/08 02:52:43;;;;;;;34.83;21.17;;;2.30;38.20;;;;;;5071858;28;20485;-69
2024/03/08 02:55:15;;;;;;;38.23;23.33;;;2.30;38.20;;;;;;5066292;28;20485;-69
2024/03/08 02:57:42;;;;;;;35.63;21.70;;;2.20;38.20;;;;;;5061357;28;20457;-69
2024/03/08 03:00:09;;;;;;;33.40;21.03;;;2.20;38.10;;;;;;5058387;28;20463;-69
2024/03/08 03:02:37;;;;;;;35.90;23.00;;;2.10;40.20;;;;;;5068664;28;20527;-69
2024/03/08 03:05:05;;;;;;;39.80;23.60;;;2.10;38.10;;;;;;5067544;28;20474;-69
2024/03/08 03:07:33;;;;;;;36.53;23.73;;;1.90;46.40;;;;;;5060127;28;20480;-68
2024/03/08 03:10:01;;;;;;;41.10;23.73;;;1.70;54.70;;;;;;5071939;28;20546;-69
2024/03/08 03:12:29;;;;;;;37.93;22.87;;;1.50;54.60;;;;;;5055691;28;20478;-69
2024/03/08 03:14:56;;;;;;;38.47;24.50;;;1.40;54.60;;;;;;5070911;28;20478;-69
2024/03/08 03:17:24;;;;;;;37.80;23.47;;;1.20;62.60;;;;;;5071777;28;20458;-69
2024/03/08 03:19:51;;;;;;;49.43;27.30;;;1.10;70.30;;;;;;5071613;28;20450;-69
2024/03/08 03:22:18;;;;;;;49.50;28.80;;;0.90;70.20;;;;;;5071764;28;20829;-69
2024/03/08 03:24:46;;;;;;;48.95;36.55;;;0.80;77.80;;;;;;5054731;28;20814;-69
2024/03/08 03:27:13;;;;;;;55.63;49.73;;;0.80;85.40;;;;;;5071837;28;20204;-69
2024/03/08 03:29:42;;;;;;;52.00;47.27;;;0.80;85.40;;;;;;5071366;28;20458;-69
2024/03/08 03:32:09;;;;;;;52.63;47.50;;;0.90;85.50;;;;;;5058245;28;20455;-69
2024/03/08 03:34:36;;;;;;;49.13;43.77;;;1.00;85.50;;;;;;5052161;28;20447;-70
2024/03/08 03:37:03;;;;;;;46.13;38.07;;;1.10;85.40;;;;;;5058816;28;20501;-69
2024/03/08 03:39:31;;;;;;;50.00;35.47;;;1.20;78.20;;;;;;5051573;28;20458;-70
2024/03/08 03:41:58;;;;;;;47.10;30.77;;;1.30;73.60;;;;;;5063479;28;20480;-69
2024/03/08 03:44:25;;;;;;;40.13;30.57;;;1.40;70.60;;;;;;5059849;28;20485;-70
2024/03/08 03:46:53;;;;;;;44.13;27.67;;;1.40;70.60;;;;;;5063641;28;20461;-69
2024/03/08 03:49:20;;;;;;;40.40;28.10;;;1.30;70.60;;;;;;5055558;28;20452;-69
2024/03/08 03:51:47;;;;;;;49.80;34.20;;;1.20;78.40;;;;;;5073896;28;20843;-69
2024/03/08 03:54:14;;;;;;;43.10;30.23;;;1.20;78.10;;;;;;5074950;28;21007;-69
2024/03/08 03:56:40;;;;;;;46.40;31.57;;;1.10;76.70;;;;;;5057888;28;20479;-69
2024/03/08 03:59:07;;;;;;;44.97;35.73;;;1.00;85.40;;;;;;5075020;28;20953;-67
2024/03/08 04:01:35;;;;;;;41.23;32.70;;;1.10;81.00;;;;;;5058384;28;20960;-67
2024/03/08 04:04:03;;;;;;;45.10;33.47;;;1.20;78.60;;;;;;5062728;28;20543;-67
2024/03/08 04:06:30;;;;;;;49.70;35.57;;;1.00;78.50;;;;;;5062851;28;20455;-67
2024/03/08 04:08:56;;;;;;;42.53;37.40;;;0.90;85.50;;;;;;5066616;28;20811;-67
2024/03/08 04:11:23;;;;;;;50.53;45.10;;;0.80;85.40;;;;;;5059239;28;20481;-67
2024/03/08 04:13:50;;;;;;;52.27;46.70;;;0.60;85.30;;;;;;5057264;28;20470;-67
2024/03/08 04:16:18;;;;;;;67.57;61.63;;;0.50;94.40;;;;;;5068265;28;20495;-67
2024/03/08 04:18:45;;;;;;;84.07;77.57;;;0.40;94.40;;;;;;5062712;28;20246;-66
2024/03/08 04:21:13;;;;;;;129.80;121.37;;;0.30;97.20;;;;;;5060343;28;20457;-67
2024/03/08 04:23:40;;;;;;;154.20;145.40;;;0.40;99.90;;;;;;5072733;28;20524;-67
2024/03/08 04:26:08;;;;;;;178.40;168.50;;;0.30;99.90;;;;;;5058989;28;20970;-67
2024/03/08 04:28:37;;;;;;;229.90;218.90;;;0.30;99.90;;;;;;5074412;28;20458;-66
2024/03/08 04:31:04;;;;;;;187.77;177.97;;;0.50;99.90;;;;;;5074606;28;20564;-67
2024/03/08 04:33:31;;;;;;;157.33;148.47;;;0.70;99.90;;;;;;5066205;28;20485;-67
2024/03/08 04:35:57;;;;;;;136.70;128.67;;;0.70;96.90;;;;;;5057475;28;20564;-66
2024/03/08 04:38:25;;;;;;;115.30;108.00;;;0.70;94.50;;;;;;5074182;28;20837;-66
2024/03/08 04:40:53;;;;;;;114.63;106.03;;;0.60;96.00;;;;;;5057809;28;20461;-67
2024/03/08 04:43:20;;;;;;;123.00;115.43;;;0.70;94.50;;;;;;5074422;28;20479;-66
2024/03/08 04:45:48;;;;;;;109.37;101.80;;;0.70;94.50;;;;;;5057451;28;20451;-67
2024/03/08 04:48:15;;;;;;;80.27;74.20;;;0.80;94.50;;;;;;5074414;28;20454;-67
2024/03/08 04:50:42;;;;;;;59.87;54.70;;;0.90;94.40;;;;;;5064703;28;20455;-67
2024/03/08 04:53:09;;;;;;;54.87;49.07;;;1.00;91.50;;;;;;5062015;28;20475;-67
2024/03/08 04:55:37;;;;;;;56.97;43.63;;;0.90;91.50;;;;;;5062802;28;21032;-67
2024/03/08 04:58:05;;;;;;;51.25;46.05;;;0.80;94.30;;;;;;5074224;28;20485;-67
2024/03/08 05:00:32;;;;;;;57.80;52.57;;;0.70;94.50;;;;;;5057315;28;20221;-67
2024/03/08 05:02:59;;;;;;;69.00;63.23;;;0.70;94.50;;;;;;5045643;28;20475;-67
2024/03/08 05:05:28;;;;;;;79.40;73.50;;;0.60;94.50;;;;;;5061582;28;20462;-67
2024/03/08 05:07:55;;;;;;;103.03;96.40;;;0.60;94.50;;;;;;5065220;28;20915;-67
2024/03/08 05:10:22;;;;;;;121.90;113.73;;;0.70;94.50;;;;;;5058496;28;20462;-67
2024/03/08 05:12:50;;;;;;;119.83;112.23;;;0.60;97.70;;;;;;5056022;28;20467;-67
2024/03/08 05:15:17;;;;;;;120.03;111.93;;;0.50;99.90;;;;;;5059042;28;20483;-67
2024/03/08 05:17:44;;;;;;;161.73;153.23;;;0.40;99.90;;;;;;5055271;28;20950;-67
2024/03/08 05:20:13;;;;;;;205.63;195.23;;;0.30;99.90;;;;;;5059799;28;20467;-67
2024/03/08 05:22:41;;;;;;;229.80;218.33;;;0.30;99.90;;;;;;5053505;28;20471;-66
2024/03/08 05:25:08;;;;;;;240.13;228.77;;;0.20;99.90;;;;;;5058201;28;20642;-67
2024/03/08 05:27:35;;;;;;;281.37;268.57;;;0.20;99.90;;;;;;5073600;28;20451;-67
2024/03/08 05:30:05;;;;;;;262.30;250.40;;;0.20;99.90;;;;;;5073482;28;20548;-67
2024/03/08 05:32:32;;;;;;;295.33;281.87;;;0.20;99.90;;;;;;5064826;28;20474;-67
2024/03/08 05:34:59;;;;;;;296.47;282.90;;;0.30;99.90;;;;;;5057096;28;20460;-67
2024/03/08 05:37:26;;;;;;;272.47;260.67;;;0.40;99.90;;;;;;5073316;28;20454;-67
2024/03/08 05:39:54;;;;;;;271.80;259.60;;;0.40;99.90;;;;;;5053781;28;20465;-66
2024/03/08 05:42:21;;;;;;;240.97;229.93;;;0.40;99.90;;;;;;5059633;28;20494;-66
2024/03/08 05:44:47;;;;;;;244.50;232.50;;;0.40;99.90;;;;;;5062184;28;20462;-67
2024/03/08 05:47:16;;;;;;;256.70;244.37;;;0.40;99.90;;;;;;5052716;28;20973;-67
2024/03/08 05:49:44;;;;;;;256.50;245.17;;;0.40;99.90;;;;;;5071013;28;20461;-67
2024/03/08 05:52:11;;;;;;;228.67;217.40;;;0.50;99.90;;;;;;5072967;28;20520;-67
2024/03/08 05:54:37;;;;;;;249.57;238.37;;;0.30;99.90;;;;;;5071903;28;20457;-65
2024/03/08 05:57:04;;;;;;;246.57;235.03;;;0.30;99.90;;;;;;5057083;28;20494;-67
2024/03/08 05:59:31;;;;;;;280.97;268.07;;;0.30;99.90;;;;;;5072823;28;20472;-64
2024/03/08 06:01:58;;;;;;;285.50;272.23;;;0.30;99.90;;;;;;5072335;28;20848;-67
2024/03/08 06:04:27;;;;;;;282.27;269.17;;;0.40;99.90;;;;;;5056808;28;20523;-70
2024/03/08 06:06:55;;;;;;;273.40;260.83;;;0.30;99.90;;;;;;5071371;28;20628;-69
2024/03/08 06:09:24;;;;;;;306.37;292.33;;;0.20;99.90;;;;;;5072765;28;20515;-70
2024/03/08 06:11:51;;;;;;;335.53;320.37;;;0.20;99.90;;;;;;5069794;28;20503;-69
2024/03/08 06:14:18;;;;;;;344.40;328.80;;;0.20;99.90;;;;;;5058601;28;20482;-70
2024/03/08 06:16:45;;;;;;;358.30;341.37;;;0.20;99.90;;;;;;5072281;28;20489;-69
2024/03/08 06:19:12;;;;;;;371.40;354.10;;;0.30;99.90;;;;;;5058816;28;20822;-69
2024/03/08 06:21:41;;;;;;;363.50;346.58;;;0.30;99.90;;;;;;5070243;28;20867;-69
2024/03/08 06:24:08;;;;;;;358.23;341.67;;;0.30;99.90;;;;;;5059045;28;20217;-69
2024/03/08 06:26:36;;;;;;;369.17;351.70;;;0.40;99.90;;;;;;5059861;28;20473;-69
2024/03/08 06:29:02;;;;;;;369.70;352.90;;;0.30;99.90;;;;;;5055925;28;20454;-69
2024/03/08 06:31:29;;;;;;;372.47;354.80;;;0.40;99.90;;;;;;5054097;28;20458;-69
2024/03/08 06:33:56;;;;;;;345.30;329.33;;;0.60;99.90;;;;;;5071804;28;20507;-69
2024/03/08 06:36:23;;;;;;;348.57;332.67;;;0.60;99.90;;;;;;5056455;28;20484;-69
2024/03/08 06:38:51;;;;;;;324.80;309.47;;;0.70;99.90;;;;;;5053984;28;20457;-69
2024/03/08 06:41:18;;;;;;;314.30;299.67;;;0.60;99.90;;;;;;5056336;28;20742;-69
2024/03/08 06:43:46;;;;;;;300.17;286.67;;;0.70;99.90;;;;;;5060119;28;20489;-70
2024/03/08 06:46:13;;;;;;;289.37;275.90;;;0.80;99.90;;;;;;5065457;28;20814;-69
2024/03/08 06:48:40;;;;;;;279.40;266.87;;;0.80;99.90;;;;;;5071444;28;20460;-69
2024/03/08 06:51:07;;;;;;;258.63;246.00;;;0.90;99.90;;;;;;5071412;28;20456;-70
2024/03/08 06:53:35;;;;;;;238.10;226.77;;;1.00;99.90;;;;;;5071506;28;20502;-69
2024/03/08 06:56:03;;;;;;;230.17;218.90;;;1.00;99.90;;;;;;5071242;28;20478;-69
2024/03/08 06:58:30;;;;;;;204.47;194.33;;;1.10;99.90;;;;;;5071763;28;20460;-69
2024/03/08 07:01:00;;;;;;;185.50;175.07;;;1.10;99.90;;;;;;5067810;28;20958;-69
2024/03/08 07:03:29;;;;;;;155.37;147.57;;;1.20;99.90;;;;;;5051552;28;21085;-69
2024/03/08 07:05:56;;;;;;;145.10;136.40;;;1.20;99.90;;;;;;5063045;28;20457;-69
2024/03/08 07:08:23;;;;;;;139.47;129.70;;;1.30;99.90;;;;;;5064519;28;20905;-67
2024/03/08 07:10:50;;;;;;;121.77;113.63;;;1.40;99.90;;;;;;5062242;28;20937;-70
2024/03/08 07:13:18;;;;;;;104.40;97.13;;;1.50;99.20;;;;;;5065245;28;21005;-69
2024/03/08 07:15:46;;;;;;;93.97;86.93;;;1.60;95.20;;;;;;5051416;28;20451;-70
2024/03/08 07:18:14;;;;;;;86.50;80.17;;;1.70;95.80;;;;;;5064015;28;20465;-70
2024/03/08 07:20:41;;;;;;;78.60;71.43;;;1.80;94.90;;;;;;5065421;28;20453;-70
2024/03/08 07:23:10;;;;;;;69.63;63.13;;;1.90;94.90;;;;;;5070461;28;20470;-69
2024/03/08 07:25:39;;;;;;;57.70;52.00;;;2.00;95.30;;;;;;5064002;28;20523;-70
2024/03/08 07:28:07;;;;;;;55.50;43.70;;;2.10;94.00;;;;;;5075791;28;20481;-67
2024/03/08 07:33:22;;;;;;;43.27;29.60;;;2.40;86.70;;;;;;5064827;28;20554;-67
2024/03/08 07:35:50;;;;;;;53.77;29.13;;;2.60;86.90;;;;;;5065800;28;20450;-67
2024/03/08 07:38:17;;;;;;;40.67;25.40;;;2.70;81.30;;;;;;5074659;28;20841;-67
2024/03/08 07:40:45;;;;;;;40.50;24.20;;;2.80;80.60;;;;;;5057484;28;20524;-67
2024/03/08 07:43:12;;;;;;;44.90;25.37;;;3.00;74.10;;;;;;5069607;28;20474;-68
2024/03/08 07:45:40;;;;;;;35.80;23.10;;;3.10;75.50;;;;;;5064133;28;20450;-66
2024/03/08 07:48:09;;;;;;;44.70;24.50;;;3.20;72.10;;;;;;5069700;28;20454;-66
2024/03/08 07:50:37;;;;;;;38.10;23.17;;;3.30;72.20;;;;;;5064533;28;20499;-67
2024/03/08 07:53:06;;;;;;;43.70;21.50;;;3.40;72.30;;;;;;5063275;28;20550;-67
2024/03/08 07:55:33;;;;;;;41.57;23.27;;;3.50;72.30;;;;;;5071319;28;20493;-66
2024/03/08 07:57:59;;;;;;;35.40;20.30;;;3.70;66.70;;;;;;5071588;28;20479;-67
2024/03/08 08:00:27;;;;;;;41.67;23.10;;;3.70;64.90;;;;;;5054406;28;20459;-67
2024/03/08 08:02:55;;;;;;;49.00;25.17;;;3.80;72.00;;;;;;5053844;28;20452;-67
2024/03/08 08:05:22;;;;;;;48.03;23.50;;;3.90;64.90;;;;;;5069650;28;20208;-67
2024/03/08 08:07:49;;;;;;;33.33;22.33;;;4.10;58.20;;;;;;5058131;28;20946;-67
2024/03/08 08:10:18;;;;;;;42.73;24.70;;;4.20;57.00;;;;;;5060461;28;20870;-67
2024/03/08 08:12:46;;;;;;;38.23;21.47;;;4.20;57.00;;;;;;5072748;28;20470;-67
2024/03/08 08:15:14;;;;;;;36.50;20.87;;;4.30;57.10;;;;;;5060420;28;20458;-67
2024/03/08 08:17:42;;;;;;;37.00;21.53;;;4.40;57.10;;;;;;5072492;28;20482;-67
2024/03/08 08:20:11;;;;;;;39.70;22.80;;;4.50;57.30;;;;;;5061422;28;20455;-67
2024/03/08 08:22:39;;;;;;;38.50;20.83;;;4.60;57.30;;;;;;5071694;28;20600;-67
2024/03/08 08:25:06;;;;;;;32.20;20.77;;;4.70;57.40;;;;;;5059075;28;20454;-67
2024/03/08 08:27:34;;;;;;;40.63;20.63;;;4.80;57.40;;;;;;5057747;28;20449;-66
2024/03/08 08:30:00;;;;;;;36.80;23.40;;;4.90;57.50;;;;;;5074056;28;20457;-67
2024/03/08 08:32:27;;;;;;;33.37;20.30;;;5.20;57.80;;;;;;5074252;28;20964;-67
2024/03/08 08:34:54;;;;;;;36.33;20.20;;;5.10;49.30;;;;;;5056948;28;20455;-67
2024/03/08 08:37:23;;;;;;;34.07;20.90;;;5.30;49.50;;;;;;5074529;28;20478;-66
2024/03/08 08:39:51;;;;;;;30.03;18.90;;;5.30;49.50;;;;;;5074731;28;20454;-67
2024/03/08 08:42:18;;;;;;;36.83;20.93;;;5.40;44.40;;;;;;5073915;28;20456;-67
2024/03/08 08:44:45;;;;;;;38.57;19.63;;;5.50;41.00;;;;;;5064004;28;21008;-67
2024/03/08 08:47:13;;;;;;;30.37;19.10;;;5.60;49.70;;;;;;5067939;28;20450;-67
2024/03/08 08:49:39;;;;;;;35.97;22.60;;;5.70;41.20;;;;;;5058069;28;20459;-67
2024/03/08 08:52:07;;;;;;;37.33;20.90;;;5.80;41.30;;;;;;5059366;28;20454;-68
2024/03/08 08:54:35;;;;;;;33.53;19.50;;;5.90;41.30;;;;;;5057167;28;20480;-66
2024/03/08 08:57:07;;;;;;;37.63;19.10;;;6.10;43.20;;;;;;5057996;28;20488;-67
2024/03/08 08:59:35;;;;;;;31.20;19.93;;;6.40;41.80;;;;;;5073932;28;20527;-67
2024/03/08 09:02:03;;;;;;;33.87;19.77;;;6.70;42.00;;;;;;5073922;28;20533;-67
2024/03/08 09:04:30;;;;;;;27.30;17.60;;;6.90;33.40;;;;;;5073788;28;20502;-67
2024/03/08 09:06:57;;;;;;;30.63;17.67;;;7.20;33.60;;;;;;5073635;28;20450;-68
2024/03/08 09:09:25;;;;;;;27.23;18.40;;;7.50;26.10;;;;;;5073668;28;20454;-68
2024/03/08 09:11:54;;;;;;;28.37;17.40;;;7.80;26.30;;;;;;5057315;28;20447;-68
2024/03/08 09:14:21;;;;;;;30.47;17.30;;;8.00;26.40;;;;;;5074026;28;20498;-68
2024/03/08 09:16:48;;;;;;;32.43;19.20;;;8.40;26.70;;;;;;5062452;28;20490;-68
2024/03/08 09:19:15;;;;;;;24.60;16.57;;;8.40;26.20;;;;;;5061624;28;20569;-68
2024/03/08 09:21:42;;;;;;;30.83;19.43;;;8.70;19.70;;;;;;5053640;28;20451;-68
2024/03/08 09:24:08;;;;;;;25.40;16.10;;;8.90;24.70;;;;;;5053431;28;20550;-68
2024/03/08 09:26:35;;;;;;;23.70;15.93;;;9.20;20.70;;;;;;5057194;28;20451;-70
2024/03/08 09:29:05;;;;;;;24.90;15.83;;;9.20;12.90;;;;;;5057293;28;20931;-70
2024/03/08 09:31:31;;;;;;;24.67;16.80;;;9.30;12.80;;;;;;5063246;28;20960;-69
2024/03/08 09:33:58;;;;;;;26.07;15.77;;;9.40;12.90;;;;;;5062947;28;20847;-67
2024/03/08 09:36:25;;;;;;;25.20;15.60;;;9.50;13.00;;;;;;5068731;28;20446;-67
2024/03/08 09:38:52;;;;;;;27.00;17.57;;;9.70;13.10;;;;;;5073837;28;20628;-66
2024/03/08 09:41:19;;;;;;;28.80;17.00;;;9.60;13.00;;;;;;5072183;28;20855;-66
2024/03/08 09:43:47;;;;;;;27.63;17.77;;;10.00;12.50;;;;;;5072510;28;20470;-65
2024/03/08 09:46:16;;;;;;;22.40;15.20;;;10.00;11.70;;;;;;5072665;28;20461;-66
2024/03/08 09:48:43;;;;;;;23.87;16.23;;;10.00;5.00;;;;;;5071182;28;20462;-66
2024/03/08 09:51:13;;;;;;;25.33;16.00;;;9.90;5.10;;;;;;5059258;28;20489;-66
2024/03/08 09:53:40;;;;;;;28.60;16.73;;;10.20;5.20;;;;;;5063265;28;21005;-66
2024/03/08 09:56:08;;;;;;;25.37;16.17;;;10.40;5.30;;;;;;5051645;28;20459;-66
2024/03/08 09:58:52;;;;;;;25.00;15.43;;;10.30;3.20;;;;;;5069306;28;20839;-66
2024/03/08 10:01:21;;;;;;;23.57;16.17;;;10.60;5.40;;;;;;5072664;28;20472;-65
2024/03/08 10:03:49;;;;;;;22.63;15.40;;;10.70;1.00;;;;;;5072516;28;20478;-66
2024/03/08 10:06:15;;;;;;;22.80;16.77;;;10.90;1.00;;;;;;5072291;28;20461;-66
2024/03/08 10:08:42;;;;;;;25.60;15.90;;;10.90;1.00;;;;;;5071187;28;20457;-66
2024/03/08 10:11:11;;;;;;;23.17;15.90;;;11.00;1.00;;;;;;5057583;28;20462;-66
2024/03/08 10:13:40;;;;;;;23.80;15.40;;;11.30;1.00;;;;;;5072576;28;20544;-65
2024/03/08 10:16:07;;;;;;;23.37;15.13;;;11.50;1.00;;;;;;5067893;28;20459;-66
2024/03/08 10:18:35;;;;;;;24.80;15.50;;;11.70;1.00;;;;;;5060731;28;20486;-66
2024/03/08 10:21:07;;;;;;;22.73;14.33;;;11.80;1.00;;;;;;5056600;28;20462;-66
2024/03/08 10:23:34;;;;;;;21.00;14.33;;;11.70;1.00;;;;;;5063854;28;20624;-65
2024/03/08 10:26:15;;;;;;;25.63;15.70;;;11.80;1.00;;;;;;5051883;28;20451;-66
2024/03/08 10:28:42;;;;;;;24.87;15.90;;;11.80;1.00;;;;;;5053362;28;20455;-65
2024/03/08 10:31:09;;;;;;;20.13;14.60;;;11.90;1.00;;;;;;5072386;28;20451;-65
2024/03/08 10:33:39;;;;;;;25.87;15.87;;;11.90;1.00;;;;;;5063284;28;20529;-66
2024/03/08 10:36:08;;;;;;;22.67;14.33;;;12.10;1.00;;;;;;5064688;28;20450;-65
2024/03/08 10:38:37;;;;;;;20.80;14.23;;;12.00;1.00;;;;;;5072046;28;20482;-66
2024/03/08 10:41:06;;;;;;;21.90;13.90;;;12.20;1.00;;;;;;5067672;28;20477;-66
2024/03/08 10:43:40;;;;;;;21.27;11.90;;;12.50;1.00;;;;;;5051814;28;20474;-65
2024/03/08 10:46:29;;;;;;;21.40;14.80;;;12.60;1.00;;;;;;5053320;28;20559;-66
2024/03/08 10:48:59;;;;;;;18.73;13.40;;;12.80;1.00;;;;;;5063742;28;20457;-66
2024/03/08 10:51:26;;;;;;;24.33;14.50;;;13.00;1.00;;;;;;5056018;28;20462;-66
2024/03/08 10:53:55;;;;;;;19.13;13.80;;;12.90;1.00;;;;;;5059872;28;20994;-66
2024/03/08 10:56:22;;;;;;;17.57;12.57;;;13.00;1.00;;;;;;5066661;28;20451;-65
2024/03/08 10:58:50;;;;;;;22.47;12.20;;;13.30;1.00;;;;;;5069522;28;20482;-66
2024/03/08 11:01:17;;;;;;;20.37;11.30;;;13.40;1.00;;;;;;5051896;28;20471;-66
2024/03/08 11:03:46;;;;;;;22.00;12.90;;;13.70;1.00;;;;;;5060218;28;20454;-66
2024/03/08 11:06:17;;;;;;;19.07;12.87;;;13.30;1.00;;;;;;5057492;28;20461;-66
2024/03/08 11:08:45;;;;;;;18.40;12.40;;;13.20;1.00;;;;;;5072535;28;20458;-66
2024/03/08 11:11:30;;;;;;;18.30;12.57;;;13.60;1.00;;;;;;5072108;28;20454;-66
2024/03/08 11:13:57;;;;;;;16.20;10.80;;;13.80;1.00;;;;;;5059897;28;20836;-65
2024/03/08 11:16:43;;;;;;;16.80;11.23;;;13.40;1.00;;;;;;5066718;28;20457;-66
2024/03/08 11:19:31;;;;;;;14.87;10.40;;;13.90;1.00;;;;;;5058681;28;20453;-66
2024/03/08 11:22:03;;;;;;;16.30;10.43;;;13.60;1.00;;;;;;5072260;28;20449;-66
2024/03/08 11:24:40;;;;;;;13.77;9.70;;;13.60;1.00;;;;;;5071613;28;20470;-66
2024/03/08 11:27:09;;;;;;;15.97;9.73;;;13.60;1.00;;;;;;5071751;28;20477;-66
2024/03/08 11:29:38;;;;;;;15.07;10.27;;;13.70;1.00;;;;;;5062902;28;20458;-66
2024/03/08 11:32:09;;;;;;;16.60;11.00;;;13.90;1.00;;;;;;5064499;28;20456;-66
2024/03/08 11:34:36;;;;;;;16.67;10.60;;;13.90;1.00;;;;;;5071529;28;20525;-66
2024/03/08 11:37:09;;;;;;;17.63;10.90;;;14.00;1.00;;;;;;5070990;28;20929;-66
2024/03/08 11:39:38;;;;;;;19.20;10.33;;;14.30;1.00;;;;;;5054659;28;20467;-66
2024/03/08 11:42:05;;;;;;;14.30;10.13;;;14.30;1.00;;;;;;5051475;28;20459;-66
2024/03/08 11:44:32;;;;;;;18.53;9.20;;;14.20;1.00;;;;;;5059687;28;20481;-66
2024/03/08 11:46:59;;;;;;;20.07;10.57;;;14.30;1.00;;;;;;5059325;28;20458;-67
2024/03/08 11:49:26;;;;;;;15.97;9.97;;;14.40;1.00;;;;;;5067033;28;20934;-66
2024/03/08 11:51:54;;;;;;;18.60;10.83;;;14.90;1.00;;;;;;5060893;28;20580;-67
2024/03/08 11:54:22;;;;;;;14.80;9.97;;;14.60;1.00;;;;;;5051578;28;20511;-66
2024/03/08 11:56:52;;;;;;;14.40;9.70;;;14.90;1.00;;;;;;5051026;28;20456;-66
2024/03/08 11:59:19;;;;;;;16.97;10.67;;;14.90;1.00;;;;;;5058004;28;20474;-67
2024/03/08 12:02:01;;;;;;;15.90;10.40;;;14.80;1.00;;;;;;5054966;28;20505;-67
2024/03/08 12:04:28;;;;;;;17.70;10.97;;;15.20;1.00;;;;;;5073195;28;20474;-67
2024/03/08 12:06:55;;;;;;;17.70;11.53;;;15.80;1.00;;;;;;5063229;28;20451;-66
2024/03/08 12:09:23;;;;;;;16.40;10.27;;;16.20;1.00;;;;;;5070050;28;20485;-66
2024/03/08 12:11:50;;;;;;;15.13;10.17;;;15.60;1.00;;;;;;5072733;28;20813;-67
2024/03/08 12:14:17;;;;;;;15.87;10.97;;;15.60;1.00;;;;;;5054711;28;20475;-67
2024/03/08 12:16:44;;;;;;;16.97;10.20;;;15.70;1.00;;;;;;5063892;28;20836;-66
2024/03/08 12:19:12;;;;;;;15.90;11.03;;;15.90;1.00;;;;;;5061326;28;20538;-66
2024/03/08 12:21:46;;;;;;;15.73;10.83;;;16.50;1.00;;;;;;5062991;28;20494;-66
2024/03/08 12:24:16;;;;;;;15.33;9.77;;;16.10;1.00;;;;;;5054612;28;20483;-66
2024/03/08 12:26:44;;;;;;;17.73;11.17;;;16.20;1.00;;;;;;5071964;28;20548;-66
2024/03/08 12:29:20;;;;;;;17.70;12.53;;;16.40;1.00;;;;;;5074272;28;20489;-66
2024/03/08 12:31:47;;;;;;;16.63;10.63;;;16.20;1.00;;;;;;5064243;28;20464;-67
2024/03/08 12:34:15;;;;;;;16.17;10.80;;;16.10;1.00;;;;;;5062458;28;21017;-67
2024/03/08 12:36:47;;;;;;;14.80;10.03;;;16.70;1.00;;;;;;5063343;28;20458;-66
2024/03/08 12:39:15;;;;;;;15.20;10.73;;;16.70;1.00;;;;;;5074268;28;20454;-67